Riverside, CA (92507)

3:05 PM PST on February 24, 2017 (GMT -0800)
Riverside Live Steamers / HUNTER PARK | | Change Station
Active Advisory: Frost Advisory

Elev 980 ft 34.00 °N, 117.34 °W | Updated 57 seconds ago

Clear
Clear
64.0 °F
Feels Like 64.0 °F
N
4.2
Wind Variable Wind from WSW

Today
High -- | Low -- °F
--% Chance of Precip.
Yesterday
High -- | Low -- °F
Precip. -- in
Pressure 30.09 in
Visibility 10.0 miles
Clouds Clear
Dew Point 28 °F
Humidity 25%
Rainfall 0.98 in
Snow Depth Not available.
6:23 AM 5:41 PM
Waning Crescent, 3% visible
METAR KRAL 242253Z VRB04KT 10SM CLR 16/M02 A3011 RMK AO2 SLP188 T01611022
Pressure 30.09 in
Visibility 10.0 miles
Clouds Clear
Dew Point 28 °F
Humidity 25%
Rainfall 0.98 in
Snow Depth Not available.
6:23 AM 5:41 PM
Waning Crescent, 3% visible
METAR KRAL 242253Z VRB04KT 10SM CLR 16/M02 A3011 RMK AO2 SLP188 T01611022

Get Your Daily Forecast Email!

Thanks for signing up!

Be on the lookout for a verification email in your inbox.

You'll start receiving the daily forecast at 8 AM.

×

10-Day Weather Forecast

Almanac

Astronomy

Feb. 24, 2017 Rise Set
Actual Time
Civil Twilight
Nautical Twilight
Astronomical Twilight
Moon
Length of Visible Light
Length of Day
Tomorrow will be .
, % of the Moon is Illuminated

Today's Extremes

State Highs State Lows

Community

WunderPhotos

Upload Photos

1,962,540 photos uploaded!

WunderBlog® & News

Nearby

Air Quality

  Air Quality AQ Index Pollutant
Not available.

Snow Depth

Station Depth Elevation

Earthquake Activity

City Distance Mag. Time & Date
Minimum magnitude displayed is 2.5.

Coastal Water Temperatures

Place Temperature

Stations

Nearby Weather Stations

Station Location Temp. Windchill Dew Point Humidity Wind Precip. Elev Updated Type
                   

Watches & Warnings

Frost Advisory
Issued: 12:39 PM PST Feb. 24, 2017 – National Weather Service

... Frost advisory in effect from midnight tonight to 8 am PST
Saturday...

The National Weather Service in San Diego has issued a frost
advisory, which is in effect from midnight tonight to 8 am PST
Saturday.

* Location... wind sheltered valleys

* temperature... 33 to 36. Isolated spots 27 to 32.

* Impacts... damage to sensitive vegetation if left uncovered.

Precautionary/preparedness actions...

A frost advisory means that widespread frost is expected.
Precautions should be taken to protect sensitive outdoor plants.
Make sure pets left outdoors have adequate shelter.



Jad